createdAt,value
2023-01-28T00:01:23.546Z,101526.09
2023-01-28T00:06:27.058Z,101530.06
2023-01-28T00:11:28.275Z,101535.47
2023-01-28T00:16:30.340Z,101526.50
2023-01-28T00:21:31.682Z,101532.69
2023-01-28T00:26:34.097Z,101524.28
2023-01-28T00:31:35.491Z,101513.56
2023-01-28T00:36:42.373Z,101510.16
2023-01-28T00:41:43.629Z,101514.13
2023-01-28T00:46:47.476Z,101516.09
2023-01-28T00:51:57.881Z,101512.53
2023-01-28T00:56:59.055Z,101530.44
2023-01-28T01:02:12.222Z,101524.00
2023-01-28T01:07:13.539Z,101524.72
2023-01-28T01:12:14.808Z,101515.78
2023-01-28T01:17:16.056Z,101518.91
2023-01-28T01:22:17.288Z,101528.63
2023-01-28T01:27:25.880Z,101526.28
2023-01-28T01:32:27.037Z,101530.69
2023-01-28T01:37:28.242Z,101538.19
2023-01-28T01:42:29.464Z,101524.56
2023-01-28T01:47:30.740Z,101527.50
2023-01-28T01:52:32.029Z,101523.25
2023-01-28T01:57:33.246Z,101538.38
2023-01-28T02:02:34.462Z,101533.63
2023-01-28T02:07:35.769Z,101535.19
2023-01-28T02:12:37.055Z,101537.38
2023-01-28T02:17:38.321Z,101538.66
2023-01-28T02:22:39.908Z,101549.13
2023-01-28T02:27:41.130Z,101539.22
2023-01-28T02:32:42.297Z,101544.09
2023-01-28T02:37:44.725Z,101553.75
2023-01-28T02:42:46.022Z,101548.31
2023-01-28T02:47:59.238Z,101548.97
2023-01-28T02:53:19.366Z,101561.09
2023-01-28T02:58:20.593Z,101567.19
2023-01-28T03:03:23.394Z,101579.13
2023-01-28T03:08:43.200Z,101574.81
2023-01-28T03:14:03.102Z,101574.69
2023-01-28T03:19:24.986Z,101576.88
2023-01-28T03:24:44.892Z,101579.09
2023-01-28T03:30:04.663Z,101578.88
2023-01-28T03:35:24.648Z,101578.09
2023-01-28T03:40:25.876Z,101580.84
2023-01-28T03:45:27.196Z,101581.59
2023-01-28T03:50:28.420Z,101579.50
2023-01-28T03:55:29.665Z,101586.97
2023-01-28T04:00:30.848Z,101583.03
2023-01-28T04:05:32.058Z,101593.84
2023-01-28T04:10:33.313Z,101599.19
2023-01-28T04:15:35.798Z,101601.34
2023-01-28T04:20:37.837Z,101608.22
2023-01-28T04:25:39.149Z,101608.31
2023-01-28T04:30:40.413Z,101621.75
2023-01-28T04:35:41.692Z,101627.59
2023-01-28T04:40:42.864Z,101628.44
2023-01-28T04:45:44.128Z,101632.69
2023-01-28T04:50:45.681Z,101627.41
2023-01-28T04:55:46.887Z,101635.69
2023-01-28T05:00:48.164Z,101638.38
2023-01-28T05:05:49.470Z,101638.66
2023-01-28T05:10:50.740Z,101635.28
2023-01-28T05:15:52.675Z,101636.63
2023-01-28T05:20:53.900Z,101632.47
2023-01-28T05:25:55.140Z,101639.09
2023-01-28T05:30:56.402Z,101643.94
2023-01-28T05:35:57.762Z,101639.00
2023-01-28T05:40:59.029Z,101627.28
2023-01-28T05:46:00.315Z,101645.59
2023-01-28T05:51:01.952Z,101640.06
2023-01-28T05:56:03.325Z,101642.47
2023-01-28T06:01:04.605Z,101653.59
2023-01-28T06:06:08.097Z,101659.59
2023-01-28T06:11:09.257Z,101664.75
2023-01-28T06:16:10.560Z,101665.56
2023-01-28T06:21:11.808Z,101659.22
2023-01-28T06:26:13.046Z,101662.00
2023-01-28T06:31:14.255Z,101669.59
2023-01-28T06:36:15.505Z,101665.16
2023-01-28T06:41:16.955Z,101667.19
2023-01-28T06:46:18.315Z,101670.38
2023-01-28T06:51:19.509Z,101657.44
2023-01-28T06:56:20.716Z,101666.25
2023-01-28T07:01:21.879Z,101670.22
2023-01-28T07:06:23.053Z,101675.19
2023-01-28T07:11:24.281Z,101680.38
2023-01-28T07:16:25.445Z,101679.59
2023-01-28T07:21:26.668Z,101683.59
2023-01-28T07:26:29.028Z,101680.59
2023-01-28T07:31:30.407Z,101676.44
2023-01-28T07:36:31.660Z,101677.03
2023-01-28T07:41:32.912Z,101672.66
2023-01-28T07:46:34.164Z,101675.47
2023-01-28T07:51:35.362Z,101676.88
2023-01-28T07:56:38.381Z,101683.03
2023-01-28T08:01:39.701Z,101691.81
2023-01-28T08:06:41.003Z,101687.63
2023-01-28T08:11:42.526Z,101696.94
2023-01-28T08:16:43.813Z,101721.44
2023-01-28T08:21:45.036Z,101724.25
2023-01-28T08:26:46.227Z,101727.06
2023-01-28T08:31:47.413Z,101727.47
2023-01-28T08:36:48.629Z,101719.94
2023-01-28T08:41:49.867Z,101734.50
2023-01-28T08:46:51.083Z,101743.41
2023-01-28T08:51:52.375Z,101752.16
2023-01-28T08:56:53.609Z,101740.84
2023-01-28T09:01:54.836Z,101741.91
2023-01-28T09:06:56.159Z,101749.88
2023-01-28T09:11:57.401Z,101747.88
2023-01-28T09:16:58.566Z,101751.69
2023-01-28T09:21:59.753Z,101779.78
2023-01-28T09:27:00.923Z,101782.56
2023-01-28T09:32:02.109Z,101793.16
2023-01-28T09:37:04.504Z,101794.88
2023-01-28T09:42:05.742Z,101795.72
2023-01-28T09:47:06.939Z,101804.50
2023-01-28T09:52:08.194Z,101809.41
2023-01-28T09:57:11.135Z,101814.41
2023-01-28T10:02:14.355Z,101797.75
2023-01-28T10:07:18.279Z,101795.81
2023-01-28T10:12:19.529Z,101798.00
2023-01-28T10:17:20.796Z,101806.16
2023-01-28T10:22:22.054Z,101809.34
2023-01-28T10:27:23.282Z,101798.25
2023-01-28T10:32:27.121Z,101805.81
2023-01-28T10:37:28.309Z,101806.00
2023-01-28T10:42:29.547Z,101803.78
2023-01-28T10:47:32.664Z,101807.75
2023-01-28T10:52:33.903Z,101798.94
2023-01-28T10:57:35.237Z,101798.13
2023-01-28T11:02:37.315Z,101798.94
2023-01-28T11:07:38.889Z,101795.56
2023-01-28T11:12:40.123Z,101806.94
2023-01-28T11:17:43.690Z,101801.00
2023-01-28T11:22:44.982Z,101813.44
2023-01-28T11:27:46.212Z,101801.50
2023-01-28T11:32:47.403Z,101806.66
2023-01-28T11:37:51.508Z,101807.31
2023-01-28T11:42:52.805Z,101818.06
2023-01-28T11:47:53.969Z,101817.44
2023-01-28T11:53:06.422Z,101817.25
2023-01-28T11:58:08.569Z,101816.53
2023-01-28T12:03:09.851Z,101818.09
2023-01-28T12:08:11.022Z,101794.75
2023-01-28T12:13:12.217Z,101789.59
2023-01-28T12:18:13.388Z,101794.16
2023-01-28T12:23:14.636Z,101792.00
2023-01-28T12:28:15.847Z,101784.03
2023-01-28T12:33:17.667Z,101797.41
2023-01-28T12:38:19.299Z,101801.03
2023-01-28T12:43:20.528Z,101794.84
2023-01-28T12:48:21.695Z,101787.06
2023-01-28T12:53:22.895Z,101778.72
2023-01-28T12:58:25.129Z,101761.59
2023-01-28T13:03:26.329Z,101753.03
2023-01-28T13:08:27.485Z,101747.88
2023-01-28T13:13:28.840Z,101726.16
2023-01-28T13:18:32.328Z,101729.13
2023-01-28T13:23:33.634Z,101721.75
2023-01-28T13:28:34.787Z,101686.63
2023-01-28T13:33:36.127Z,101671.22
2023-01-28T13:38:41.191Z,101651.66
2023-01-28T13:43:42.702Z,101659.16
2023-01-28T13:48:44.032Z,101709.97
2023-01-28T13:53:45.276Z,101693.47
2023-01-28T13:58:49.464Z,101701.69
2023-01-28T14:03:50.724Z,101727.66
2023-01-28T14:08:52.009Z,101717.31
2023-01-28T14:13:53.192Z,101742.75
2023-01-28T14:18:54.407Z,101754.25
2023-01-28T14:23:55.753Z,101747.25
2023-01-28T14:28:56.999Z,101756.28
2023-01-28T14:33:58.234Z,101750.47
2023-01-28T14:39:02.069Z,101752.69
2023-01-28T14:44:03.305Z,101737.50
2023-01-28T14:49:04.533Z,101725.94
2023-01-28T14:54:05.798Z,101748.06
2023-01-28T14:59:06.997Z,101731.34
2023-01-28T15:04:08.194Z,101727.75
2023-01-28T15:09:09.420Z,101719.00
2023-01-28T15:14:12.183Z,101694.66
2023-01-28T15:19:13.882Z,101701.81
2023-01-28T15:24:17.143Z,101697.03
2023-01-28T15:29:20.020Z,101696.22
2023-01-28T15:34:21.328Z,101700.75
2023-01-28T15:39:22.532Z,101714.88
2023-01-28T15:44:24.037Z,101716.00
2023-01-28T15:49:25.250Z,101726.72
2023-01-28T15:54:26.528Z,101732.78
2023-01-28T15:59:28.038Z,101738.22
2023-01-28T16:04:31.284Z,101727.03
2023-01-28T16:09:32.928Z,101741.47
2023-01-28T16:14:34.159Z,101746.41
2023-01-28T16:19:35.411Z,101753.69
2023-01-28T16:24:39.078Z,101756.66
2023-01-28T16:29:40.274Z,101759.53
2023-01-28T16:34:42.279Z,101776.53
2023-01-28T16:39:51.901Z,101797.13
2023-01-28T16:44:53.102Z,101818.88
2023-01-28T16:49:54.337Z,101828.25
2023-01-28T16:54:55.568Z,101813.78
2023-01-28T16:59:56.744Z,101827.50
2023-01-28T17:04:58.015Z,101830.81
2023-01-28T17:09:59.262Z,101829.56
2023-01-28T17:15:00.442Z,101845.34
2023-01-28T17:20:01.622Z,101825.97
2023-01-28T17:25:02.804Z,101819.03
2023-01-28T17:30:03.973Z,101813.72
2023-01-28T17:35:05.200Z,101801.25
2023-01-28T17:40:06.508Z,101804.09
2023-01-28T17:45:07.727Z,101806.66
2023-01-28T17:50:08.896Z,101802.56
2023-01-28T17:55:11.962Z,101804.53
2023-01-28T18:00:13.210Z,101816.34
2023-01-28T18:05:16.461Z,101821.66
2023-01-28T18:10:17.869Z,101845.56
2023-01-28T18:15:19.133Z,101876.16
2023-01-28T18:20:20.326Z,101863.63
2023-01-28T18:25:23.311Z,101870.25
2023-01-28T18:30:24.629Z,101858.88
2023-01-28T18:35:25.831Z,101867.94
2023-01-28T18:40:27.066Z,101877.13
2023-01-28T18:45:28.339Z,101883.16
2023-01-28T18:50:29.605Z,101881.84
2023-01-28T18:55:32.879Z,101880.88
2023-01-28T19:00:42.873Z,101898.56
2023-01-28T19:05:44.108Z,101887.44
2023-01-28T19:10:45.315Z,101885.75
2023-01-28T19:15:46.496Z,101893.50
2023-01-28T19:20:47.808Z,101892.19
2023-01-28T19:25:49.103Z,101895.63
2023-01-28T19:30:50.325Z,101891.00
2023-01-28T19:35:51.557Z,101888.59
2023-01-28T19:40:52.814Z,101891.28
2023-01-28T19:45:54.240Z,101887.75
2023-01-28T19:50:55.784Z,101898.53
2023-01-28T19:55:57.082Z,101897.91
2023-01-28T20:00:58.316Z,101910.91
2023-01-28T20:05:59.541Z,101912.16
2023-01-28T20:11:02.765Z,101907.03
2023-01-28T20:16:04.013Z,101916.41
2023-01-28T20:21:05.459Z,101916.75
2023-01-28T20:26:06.690Z,101905.28
2023-01-28T20:31:10.127Z,101904.94
2023-01-28T20:36:12.631Z,101906.78
2023-01-28T20:41:13.857Z,101900.03
2023-01-28T20:46:15.069Z,101894.97
2023-01-28T20:51:16.303Z,101898.59
2023-01-28T20:56:24.557Z,101889.16
2023-01-28T21:01:25.931Z,101891.31
2023-01-28T21:06:27.138Z,101870.13
2023-01-28T21:11:28.385Z,101876.28
2023-01-28T21:16:29.832Z,101876.13
2023-01-28T21:21:31.114Z,101880.78
2023-01-28T21:26:32.308Z,101877.25
2023-01-28T21:31:33.516Z,101868.09
2023-01-28T21:36:37.144Z,101857.31
2023-01-28T21:41:38.508Z,101848.19
2023-01-28T21:46:40.233Z,101849.69
2023-01-28T21:51:47.402Z,101853.53
2023-01-28T21:56:48.653Z,101854.34
2023-01-28T22:01:49.907Z,101851.00
2023-01-28T22:06:51.181Z,101861.13
2023-01-28T22:11:52.465Z,101841.22
2023-01-28T22:16:53.806Z,101849.41
2023-01-28T22:21:57.436Z,101861.13
2023-01-28T22:26:58.622Z,101855.22
2023-01-28T22:32:00.444Z,101852.16
2023-01-28T22:37:01.723Z,101862.91
2023-01-28T22:42:03.285Z,101874.63
2023-01-28T22:47:04.494Z,101876.88
2023-01-28T22:52:05.698Z,101875.09
2023-01-28T22:57:07.945Z,101880.38
2023-01-28T23:02:09.167Z,101881.38
2023-01-28T23:07:12.412Z,101884.72
2023-01-28T23:12:15.878Z,101883.78
2023-01-28T23:17:36.703Z,101877.53
2023-01-28T23:22:56.676Z,101878.97
2023-01-28T23:27:57.900Z,101879.28
2023-01-28T23:33:01.207Z,101864.34
2023-01-28T23:38:02.462Z,101869.31
2023-01-28T23:43:04.571Z,101855.69
2023-01-28T23:48:05.801Z,101863.69
2023-01-28T23:53:13.031Z,101856.81
2023-01-28T23:58:14.276Z,101855.81
